sensor_id;sensor_type;location;lat;lon;timestamp;P1;durP1;ratioP1;P2;durP2;ratioP2
47784;SDS011;35233;55.686;37.848;2023-02-13T00:01:27;2.85;;;2.08;;
47784;SDS011;35233;55.686;37.848;2023-02-13T00:03:53;3.40;;;2.15;;
47784;SDS011;35233;55.686;37.848;2023-02-13T00:06:18;3.38;;;2.05;;
47784;SDS011;35233;55.686;37.848;2023-02-13T00:08:43;3.17;;;1.95;;
47784;SDS011;35233;55.686;37.848;2023-02-13T00:11:09;3.63;;;2.40;;
47784;SDS011;35233;55.686;37.848;2023-02-13T00:13:34;2.92;;;2.10;;
47784;SDS011;35233;55.686;37.848;2023-02-13T00:16:02;3.85;;;2.05;;
47784;SDS011;35233;55.686;37.848;2023-02-13T00:18:29;3.13;;;2.40;;
47784;SDS011;35233;55.686;37.848;2023-02-13T00:21:04;4.22;;;2.22;;
47784;SDS011;35233;55.686;37.848;2023-02-13T00:23:32;4.18;;;2.20;;
47784;SDS011;35233;55.686;37.848;2023-02-13T00:25:59;3.38;;;2.13;;
47784;SDS011;35233;55.686;37.848;2023-02-13T00:28:25;4.90;;;2.30;;
47784;SDS011;35233;55.686;37.848;2023-02-13T00:30:51;4.25;;;2.55;;
47784;SDS011;35233;55.686;37.848;2023-02-13T00:33:17;4.43;;;2.33;;
47784;SDS011;35233;55.686;37.848;2023-02-13T00:35:42;4.18;;;2.47;;
47784;SDS011;35233;55.686;37.848;2023-02-13T00:38:08;5.20;;;2.50;;
47784;SDS011;35233;55.686;37.848;2023-02-13T00:40:33;4.68;;;2.60;;
47784;SDS011;35233;55.686;37.848;2023-02-13T00:42:58;3.95;;;2.22;;
47784;SDS011;35233;55.686;37.848;2023-02-13T00:45:24;3.35;;;2.38;;
47784;SDS011;35233;55.686;37.848;2023-02-13T00:47:49;3.08;;;2.22;;
47784;SDS011;35233;55.686;37.848;2023-02-13T00:50:15;3.67;;;2.40;;
47784;SDS011;35233;55.686;37.848;2023-02-13T00:52:40;3.92;;;2.42;;
47784;SDS011;35233;55.686;37.848;2023-02-13T00:55:06;4.18;;;2.50;;
47784;SDS011;35233;55.686;37.848;2023-02-13T00:57:32;3.25;;;2.35;;
47784;SDS011;35233;55.686;37.848;2023-02-13T00:59:57;3.28;;;2.30;;
47784;SDS011;35233;55.686;37.848;2023-02-13T01:02:23;4.57;;;2.88;;
47784;SDS011;35233;55.686;37.848;2023-02-13T01:04:48;4.38;;;2.95;;
47784;SDS011;35233;55.686;37.848;2023-02-13T01:07:14;4.10;;;2.67;;
47784;SDS011;35233;55.686;37.848;2023-02-13T01:09:39;4.28;;;2.72;;
47784;SDS011;35233;55.686;37.848;2023-02-13T01:12:05;4.60;;;2.72;;
47784;SDS011;35233;55.686;37.848;2023-02-13T01:14:31;3.70;;;2.50;;
47784;SDS011;35233;55.686;37.848;2023-02-13T01:16:56;4.93;;;2.78;;
47784;SDS011;35233;55.686;37.848;2023-02-13T01:19:22;4.72;;;2.92;;
47784;SDS011;35233;55.686;37.848;2023-02-13T01:21:47;4.20;;;2.80;;
47784;SDS011;35233;55.686;37.848;2023-02-13T01:24:13;5.18;;;3.10;;
47784;SDS011;35233;55.686;37.848;2023-02-13T01:26:38;5.85;;;3.78;;
47784;SDS011;35233;55.686;37.848;2023-02-13T01:29:04;4.07;;;2.90;;
47784;SDS011;35233;55.686;37.848;2023-02-13T01:31:30;5.50;;;3.20;;
47784;SDS011;35233;55.686;37.848;2023-02-13T01:33:56;4.25;;;3.10;;
47784;SDS011;35233;55.686;37.848;2023-02-13T01:36:22;3.83;;;2.95;;
47784;SDS011;35233;55.686;37.848;2023-02-13T01:38:51;5.22;;;3.28;;
47784;SDS011;35233;55.686;37.848;2023-02-13T01:41:17;5.18;;;3.17;;
47784;SDS011;35233;55.686;37.848;2023-02-13T01:43:44;4.22;;;3.10;;
47784;SDS011;35233;55.686;37.848;2023-02-13T01:48:59;4.88;;;3.05;;
47784;SDS011;35233;55.686;37.848;2023-02-13T01:51:37;4.03;;;2.67;;
47784;SDS011;35233;55.686;37.848;2023-02-13T01:54:09;6.15;;;3.55;;
47784;SDS011;35233;55.686;37.848;2023-02-13T01:56:42;4.78;;;2.78;;
47784;SDS011;35233;55.686;37.848;2023-02-13T01:59:14;3.50;;;2.33;;
47784;SDS011;35233;55.686;37.848;2023-02-13T02:01:43;5.10;;;2.85;;
47784;SDS011;35233;55.686;37.848;2023-02-13T02:04:11;3.67;;;2.47;;
47784;SDS011;35233;55.686;37.848;2023-02-13T02:06:41;4.40;;;2.47;;
47784;SDS011;35233;55.686;37.848;2023-02-13T02:09:17;4.00;;;2.75;;
47784;SDS011;35233;55.686;37.848;2023-02-13T02:14:27;3.95;;;2.50;;
47784;SDS011;35233;55.686;37.848;2023-02-13T02:16:53;3.17;;;2.30;;
47784;SDS011;35233;55.686;37.848;2023-02-13T02:19:25;2.72;;;2.33;;
47784;SDS011;35233;55.686;37.848;2023-02-13T02:35:18;4.25;;;2.33;;
47784;SDS011;35233;55.686;37.848;2023-02-13T02:38:00;3.40;;;2.47;;
47784;SDS011;35233;55.686;37.848;2023-02-13T02:51:34;3.83;;;2.50;;
47784;SDS011;35233;55.686;37.848;2023-02-13T02:57:09;3.65;;;2.45;;
47784;SDS011;35233;55.686;37.848;2023-02-13T02:59:40;3.58;;;2.40;;
47784;SDS011;35233;55.686;37.848;2023-02-13T03:02:27;5.97;;;2.80;;
47784;SDS011;35233;55.686;37.848;2023-02-13T03:05:19;4.57;;;2.45;;
47784;SDS011;35233;55.686;37.848;2023-02-13T03:08:08;4.22;;;2.40;;
47784;SDS011;35233;55.686;37.848;2023-02-13T03:10:35;4.63;;;2.40;;
47784;SDS011;35233;55.686;37.848;2023-02-13T03:13:54;4.72;;;2.53;;
47784;SDS011;35233;55.686;37.848;2023-02-13T03:16:21;4.20;;;2.50;;
47784;SDS011;35233;55.686;37.848;2023-02-13T03:19:12;4.88;;;2.80;;
47784;SDS011;35233;55.686;37.848;2023-02-13T03:22:06;3.60;;;2.33;;
47784;SDS011;35233;55.686;37.848;2023-02-13T03:24:59;4.05;;;2.50;;
47784;SDS011;35233;55.686;37.848;2023-02-13T03:30:44;3.40;;;2.22;;
47784;SDS011;35233;55.686;37.848;2023-02-13T03:39:04;4.50;;;2.47;;
47784;SDS011;35233;55.686;37.848;2023-02-13T03:41:41;4.13;;;2.75;;
47784;SDS011;35233;55.686;37.848;2023-02-13T03:46:59;4.53;;;2.95;;
47784;SDS011;35233;55.686;37.848;2023-02-13T03:49:31;4.18;;;2.50;;
47784;SDS011;35233;55.686;37.848;2023-02-13T03:55:05;3.65;;;2.58;;
47784;SDS011;35233;55.686;37.848;2023-02-13T03:57:55;4.40;;;2.60;;
47784;SDS011;35233;55.686;37.848;2023-02-13T04:00:43;4.63;;;2.72;;
47784;SDS011;35233;55.686;37.848;2023-02-13T04:03:21;5.00;;;2.70;;
47784;SDS011;35233;55.686;37.848;2023-02-13T04:05:57;4.97;;;2.88;;
47784;SDS011;35233;55.686;37.848;2023-02-13T04:08:32;6.00;;;2.72;;
47784;SDS011;35233;55.686;37.848;2023-02-13T04:11:03;4.22;;;2.72;;
47784;SDS011;35233;55.686;37.848;2023-02-13T04:13:56;5.50;;;2.95;;
47784;SDS011;35233;55.686;37.848;2023-02-13T04:18:59;4.47;;;2.70;;
47784;SDS011;35233;55.686;37.848;2023-02-13T04:21:25;4.05;;;2.40;;
47784;SDS011;35233;55.686;37.848;2023-02-13T04:23:51;4.32;;;2.47;;
47784;SDS011;35233;55.686;37.848;2023-02-13T04:26:17;3.63;;;2.30;;
47784;SDS011;35233;55.686;37.848;2023-02-13T04:28:45;3.33;;;2.42;;
47784;SDS011;35233;55.686;37.848;2023-02-13T04:31:11;4.53;;;2.60;;
47784;SDS011;35233;55.686;37.848;2023-02-13T04:33:37;4.60;;;2.75;;
47784;SDS011;35233;55.686;37.848;2023-02-13T04:36:02;4.05;;;2.45;;
47784;SDS011;35233;55.686;37.848;2023-02-13T04:38:28;3.28;;;2.40;;
47784;SDS011;35233;55.686;37.848;2023-02-13T04:40:53;4.00;;;2.53;;
47784;SDS011;35233;55.686;37.848;2023-02-13T04:43:19;4.93;;;2.75;;
47784;SDS011;35233;55.686;37.848;2023-02-13T04:45:48;4.28;;;2.50;;
47784;SDS011;35233;55.686;37.848;2023-02-13T04:48:14;4.95;;;2.65;;
47784;SDS011;35233;55.686;37.848;2023-02-13T04:50:40;3.35;;;2.67;;
47784;SDS011;35233;55.686;37.848;2023-02-13T04:53:05;4.75;;;2.70;;
47784;SDS011;35233;55.686;37.848;2023-02-13T04:55:30;4.03;;;2.65;;
47784;SDS011;35233;55.686;37.848;2023-02-13T04:57:56;4.80;;;2.78;;
47784;SDS011;35233;55.686;37.848;2023-02-13T05:00:22;5.75;;;2.67;;
47784;SDS011;35233;55.686;37.848;2023-02-13T05:02:49;5.97;;;2.80;;
47784;SDS011;35233;55.686;37.848;2023-02-13T05:05:15;4.55;;;2.63;;
47784;SDS011;35233;55.686;37.848;2023-02-13T05:07:41;8.25;;;2.75;;
47784;SDS011;35233;55.686;37.848;2023-02-13T05:10:07;6.53;;;2.50;;
47784;SDS011;35233;55.686;37.848;2023-02-13T05:12:34;5.40;;;2.38;;
47784;SDS011;35233;55.686;37.848;2023-02-13T05:14:59;6.88;;;2.35;;
47784;SDS011;35233;55.686;37.848;2023-02-13T05:17:25;4.65;;;2.40;;
47784;SDS011;35233;55.686;37.848;2023-02-13T05:19:50;6.25;;;2.60;;
47784;SDS011;35233;55.686;37.848;2023-02-13T05:22:15;10.13;;;2.70;;
47784;SDS011;35233;55.686;37.848;2023-02-13T05:24:59;3.90;;;2.13;;
47784;SDS011;35233;55.686;37.848;2023-02-13T05:27:25;3.63;;;2.50;;
47784;SDS011;35233;55.686;37.848;2023-02-13T05:29:50;4.32;;;2.35;;
47784;SDS011;35233;55.686;37.848;2023-02-13T05:32:16;5.05;;;3.03;;
47784;SDS011;35233;55.686;37.848;2023-02-13T05:34:41;5.10;;;3.10;;
47784;SDS011;35233;55.686;37.848;2023-02-13T05:37:07;6.75;;;2.92;;
47784;SDS011;35233;55.686;37.848;2023-02-13T05:39:32;5.15;;;2.95;;
47784;SDS011;35233;55.686;37.848;2023-02-13T05:41:58;7.25;;;3.20;;
47784;SDS011;35233;55.686;37.848;2023-02-13T05:44:23;5.50;;;3.10;;
47784;SDS011;35233;55.686;37.848;2023-02-13T05:46:49;6.18;;;3.28;;
47784;SDS011;35233;55.686;37.848;2023-02-13T05:49:14;5.40;;;3.70;;
47784;SDS011;35233;55.686;37.848;2023-02-13T05:51:40;6.47;;;3.92;;
47784;SDS011;35233;55.686;37.848;2023-02-13T05:54:07;5.80;;;4.03;;
47784;SDS011;35233;55.686;37.848;2023-02-13T05:56:32;6.13;;;3.75;;
47784;SDS011;35233;55.686;37.848;2023-02-13T05:58:58;6.53;;;4.15;;
47784;SDS011;35233;55.686;37.848;2023-02-13T06:01:24;6.13;;;4.10;;
47784;SDS011;35233;55.686;37.848;2023-02-13T06:03:49;6.18;;;4.30;;
47784;SDS011;35233;55.686;37.848;2023-02-13T06:06:15;6.45;;;3.92;;
47784;SDS011;35233;55.686;37.848;2023-02-13T06:08:41;8.50;;;4.38;;
47784;SDS011;35233;55.686;37.848;2023-02-13T06:11:08;6.22;;;4.13;;
47784;SDS011;35233;55.686;37.848;2023-02-13T06:13:33;7.15;;;3.90;;
47784;SDS011;35233;55.686;37.848;2023-02-13T06:15:59;8.15;;;4.43;;
47784;SDS011;35233;55.686;37.848;2023-02-13T06:18:24;6.43;;;4.13;;
47784;SDS011;35233;55.686;37.848;2023-02-13T06:20:50;7.13;;;4.45;;
47784;SDS011;35233;55.686;37.848;2023-02-13T06:23:15;9.95;;;4.47;;
47784;SDS011;35233;55.686;37.848;2023-02-13T06:25:41;7.65;;;4.55;;
47784;SDS011;35233;55.686;37.848;2023-02-13T06:28:06;7.10;;;4.10;;
47784;SDS011;35233;55.686;37.848;2023-02-13T06:30:32;6.40;;;4.13;;
47784;SDS011;35233;55.686;37.848;2023-02-13T06:32:58;7.50;;;4.15;;
47784;SDS011;35233;55.686;37.848;2023-02-13T06:35:24;6.43;;;4.07;;
47784;SDS011;35233;55.686;37.848;2023-02-13T06:37:50;6.65;;;4.22;;
47784;SDS011;35233;55.686;37.848;2023-02-13T06:40:16;5.72;;;3.95;;
47784;SDS011;35233;55.686;37.848;2023-02-13T06:42:43;6.93;;;4.07;;
47784;SDS011;35233;55.686;37.848;2023-02-13T06:45:09;6.32;;;4.40;;
47784;SDS011;35233;55.686;37.848;2023-02-13T06:47:39;7.82;;;4.55;;
47784;SDS011;35233;55.686;37.848;2023-02-13T06:50:05;6.45;;;4.28;;
47784;SDS011;35233;55.686;37.848;2023-02-13T06:52:31;7.38;;;4.15;;
47784;SDS011;35233;55.686;37.848;2023-02-13T06:54:56;6.43;;;4.18;;
47784;SDS011;35233;55.686;37.848;2023-02-13T06:57:22;7.10;;;4.38;;
47784;SDS011;35233;55.686;37.848;2023-02-13T06:59:50;5.57;;;3.70;;
47784;SDS011;35233;55.686;37.848;2023-02-13T07:02:15;6.22;;;3.63;;
47784;SDS011;35233;55.686;37.848;2023-02-13T07:04:41;5.45;;;3.70;;
47784;SDS011;35233;55.686;37.848;2023-02-13T07:07:06;7.53;;;4.15;;
47784;SDS011;35233;55.686;37.848;2023-02-13T07:09:32;6.63;;;4.10;;
47784;SDS011;35233;55.686;37.848;2023-02-13T07:11:57;6.18;;;3.90;;
47784;SDS011;35233;55.686;37.848;2023-02-13T07:14:23;5.15;;;3.53;;
47784;SDS011;35233;55.686;37.848;2023-02-13T07:16:49;5.40;;;3.85;;
47784;SDS011;35233;55.686;37.848;2023-02-13T07:19:14;6.32;;;3.40;;
47784;SDS011;35233;55.686;37.848;2023-02-13T07:21:40;6.03;;;3.42;;
47784;SDS011;35233;55.686;37.848;2023-02-13T07:24:05;5.38;;;3.25;;
47784;SDS011;35233;55.686;37.848;2023-02-13T07:26:31;5.30;;;3.20;;
47784;SDS011;35233;55.686;37.848;2023-02-13T07:28:56;5.95;;;3.63;;
47784;SDS011;35233;55.686;37.848;2023-02-13T07:31:22;4.43;;;3.00;;
47784;SDS011;35233;55.686;37.848;2023-02-13T07:33:48;5.05;;;3.30;;
47784;SDS011;35233;55.686;37.848;2023-02-13T07:36:13;5.80;;;3.47;;
47784;SDS011;35233;55.686;37.848;2023-02-13T07:38:39;3.72;;;2.90;;
47784;SDS011;35233;55.686;37.848;2023-02-13T07:41:05;4.80;;;3.03;;
47784;SDS011;35233;55.686;37.848;2023-02-13T07:43:30;5.53;;;3.00;;
47784;SDS011;35233;55.686;37.848;2023-02-13T07:45:59;4.13;;;3.05;;
47784;SDS011;35233;55.686;37.848;2023-02-13T07:48:26;4.88;;;2.90;;
47784;SDS011;35233;55.686;37.848;2023-02-13T07:50:59;5.43;;;3.03;;
47784;SDS011;35233;55.686;37.848;2023-02-13T07:53:27;4.80;;;2.92;;
47784;SDS011;35233;55.686;37.848;2023-02-13T07:55:53;3.88;;;2.70;;
47784;SDS011;35233;55.686;37.848;2023-02-13T07:58:19;4.32;;;2.92;;
47784;SDS011;35233;55.686;37.848;2023-02-13T08:00:44;3.95;;;2.90;;
47784;SDS011;35233;55.686;37.848;2023-02-13T08:03:10;4.60;;;2.75;;
47784;SDS011;35233;55.686;37.848;2023-02-13T08:05:36;4.53;;;2.92;;
47784;SDS011;35233;55.686;37.848;2023-02-13T08:08:02;4.65;;;2.88;;
47784;SDS011;35233;55.686;37.848;2023-02-13T08:10:29;4.47;;;2.90;;
47784;SDS011;35233;55.686;37.848;2023-02-13T08:13:13;5.50;;;3.15;;
47784;SDS011;35233;55.686;37.848;2023-02-13T08:15:39;5.93;;;3.05;;
47784;SDS011;35233;55.686;37.848;2023-02-13T08:18:05;3.72;;;2.60;;
47784;SDS011;35233;55.686;37.848;2023-02-13T08:20:31;4.30;;;2.50;;
47784;SDS011;35233;55.686;37.848;2023-02-13T08:23:06;5.10;;;2.80;;
47784;SDS011;35233;55.686;37.848;2023-02-13T08:25:34;5.53;;;3.25;;
47784;SDS011;35233;55.686;37.848;2023-02-13T08:28:00;4.60;;;2.83;;
47784;SDS011;35233;55.686;37.848;2023-02-13T08:30:26;4.97;;;2.90;;
47784;SDS011;35233;55.686;37.848;2023-02-13T08:32:52;4.07;;;2.80;;
47784;SDS011;35233;55.686;37.848;2023-02-13T08:35:18;4.50;;;3.05;;
47784;SDS011;35233;55.686;37.848;2023-02-13T08:37:44;4.78;;;2.47;;
47784;SDS011;35233;55.686;37.848;2023-02-13T08:40:09;4.20;;;2.60;;
47784;SDS011;35233;55.686;37.848;2023-02-13T08:42:35;3.60;;;2.92;;
47784;SDS011;35233;55.686;37.848;2023-02-13T08:45:02;6.82;;;3.10;;
47784;SDS011;35233;55.686;37.848;2023-02-13T08:47:28;4.93;;;2.85;;
47784;SDS011;35233;55.686;37.848;2023-02-13T08:49:53;4.03;;;2.80;;
47784;SDS011;35233;55.686;37.848;2023-02-13T08:52:19;3.88;;;2.60;;
47784;SDS011;35233;55.686;37.848;2023-02-13T08:54:44;3.85;;;2.67;;
47784;SDS011;35233;55.686;37.848;2023-02-13T08:57:10;7.53;;;3.65;;
47784;SDS011;35233;55.686;37.848;2023-02-13T08:59:37;6.07;;;2.92;;
47784;SDS011;35233;55.686;37.848;2023-02-13T09:02:02;5.97;;;3.10;;
47784;SDS011;35233;55.686;37.848;2023-02-13T09:04:28;5.55;;;2.92;;
47784;SDS011;35233;55.686;37.848;2023-02-13T09:06:53;6.28;;;3.15;;
47784;SDS011;35233;55.686;37.848;2023-02-13T09:09:20;4.60;;;3.00;;
47784;SDS011;35233;55.686;37.848;2023-02-13T09:11:45;5.38;;;3.67;;
47784;SDS011;35233;55.686;37.848;2023-02-13T09:14:11;5.28;;;3.00;;
47784;SDS011;35233;55.686;37.848;2023-02-13T09:16:36;7.13;;;3.05;;
47784;SDS011;35233;55.686;37.848;2023-02-13T09:19:02;5.13;;;2.88;;
47784;SDS011;35233;55.686;37.848;2023-02-13T09:21:28;4.45;;;2.80;;
47784;SDS011;35233;55.686;37.848;2023-02-13T09:23:55;4.78;;;3.10;;
47784;SDS011;35233;55.686;37.848;2023-02-13T09:26:21;4.80;;;3.00;;
47784;SDS011;35233;55.686;37.848;2023-02-13T09:28:46;5.60;;;3.50;;
47784;SDS011;35233;55.686;37.848;2023-02-13T09:33:58;5.68;;;2.95;;
47784;SDS011;35233;55.686;37.848;2023-02-13T09:36:23;4.72;;;3.03;;
47784;SDS011;35233;55.686;37.848;2023-02-13T09:38:53;5.32;;;3.20;;
47784;SDS011;35233;55.686;37.848;2023-02-13T09:41:36;5.38;;;2.90;;
47784;SDS011;35233;55.686;37.848;2023-02-13T09:52:10;4.80;;;3.20;;
47784;SDS011;35233;55.686;37.848;2023-02-13T09:54:35;5.78;;;3.50;;
47784;SDS011;35233;55.686;37.848;2023-02-13T09:57:02;5.68;;;3.55;;
47784;SDS011;35233;55.686;37.848;2023-02-13T10:05:01;6.22;;;3.70;;
47784;SDS011;35233;55.686;37.848;2023-02-13T10:16:29;6.20;;;3.50;;
47784;SDS011;35233;55.686;37.848;2023-02-13T10:19:59;6.70;;;3.42;;
47784;SDS011;35233;55.686;37.848;2023-02-13T10:21:57;9.02;;;3.40;;
47784;SDS011;35233;55.686;37.848;2023-02-13T10:24:29;6.50;;;3.95;;
47784;SDS011;35233;55.686;37.848;2023-02-13T10:27:03;6.47;;;3.65;;
47784;SDS011;35233;55.686;37.848;2023-02-13T10:29:52;5.93;;;3.35;;
47784;SDS011;35233;55.686;37.848;2023-02-13T10:32:39;8.45;;;3.58;;
47784;SDS011;35233;55.686;37.848;2023-02-13T10:36:06;5.78;;;3.80;;
47784;SDS011;35233;55.686;37.848;2023-02-13T10:38:42;5.57;;;3.53;;
47784;SDS011;35233;55.686;37.848;2023-02-13T10:44:11;6.65;;;3.55;;
47784;SDS011;35233;55.686;37.848;2023-02-13T10:51:47;6.05;;;3.75;;
47784;SDS011;35233;55.686;37.848;2023-02-13T10:54:23;5.78;;;3.65;;
47784;SDS011;35233;55.686;37.848;2023-02-13T11:00:12;6.78;;;3.83;;
47784;SDS011;35233;55.686;37.848;2023-02-13T11:02:45;4.57;;;3.17;;
47784;SDS011;35233;55.686;37.848;2023-02-13T11:05:12;6.60;;;3.97;;
47784;SDS011;35233;55.686;37.848;2023-02-13T11:07:48;9.40;;;4.10;;
47784;SDS011;35233;55.686;37.848;2023-02-13T11:10:15;6.93;;;3.53;;
47784;SDS011;35233;55.686;37.848;2023-02-13T11:12:42;5.93;;;3.72;;
47784;SDS011;35233;55.686;37.848;2023-02-13T11:15:19;5.10;;;3.30;;
47784;SDS011;35233;55.686;37.848;2023-02-13T11:17:50;6.15;;;3.50;;
47784;SDS011;35233;55.686;37.848;2023-02-13T11:20:29;5.18;;;3.50;;
47784;SDS011;35233;55.686;37.848;2023-02-13T11:25:40;5.57;;;3.65;;
47784;SDS011;35233;55.686;37.848;2023-02-13T11:28:18;7.10;;;3.70;;
47784;SDS011;35233;55.686;37.848;2023-02-13T11:30:45;6.05;;;3.83;;
47784;SDS011;35233;55.686;37.848;2023-02-13T11:35:41;6.40;;;3.55;;
47784;SDS011;35233;55.686;37.848;2023-02-13T11:40:35;4.43;;;3.28;;
47784;SDS011;35233;55.686;37.848;2023-02-13T11:43:05;5.65;;;3.70;;
47784;SDS011;35233;55.686;37.848;2023-02-13T11:45:32;5.47;;;3.63;;
47784;SDS011;35233;55.686;37.848;2023-02-13T11:47:58;6.85;;;3.50;;
47784;SDS011;35233;55.686;37.848;2023-02-13T11:50:28;4.95;;;3.63;;
47784;SDS011;35233;55.686;37.848;2023-02-13T11:55:37;7.60;;;3.85;;
47784;SDS011;35233;55.686;37.848;2023-02-13T12:00:35;6.25;;;3.28;;
47784;SDS011;35233;55.686;37.848;2023-02-13T12:06:14;5.85;;;3.45;;
47784;SDS011;35233;55.686;37.848;2023-02-13T12:08:41;6.45;;;3.15;;
47784;SDS011;35233;55.686;37.848;2023-02-13T12:14:02;4.55;;;3.15;;
47784;SDS011;35233;55.686;37.848;2023-02-13T12:16:33;6.00;;;3.20;;
47784;SDS011;35233;55.686;37.848;2023-02-13T12:19:06;4.65;;;3.00;;
47784;SDS011;35233;55.686;37.848;2023-02-13T12:38:01;5.32;;;3.25;;
47784;SDS011;35233;55.686;37.848;2023-02-13T12:40:51;6.70;;;3.50;;
47784;SDS011;35233;55.686;37.848;2023-02-13T12:44:04;7.20;;;3.40;;
47784;SDS011;35233;55.686;37.848;2023-02-13T12:46:39;6.68;;;2.95;;
47784;SDS011;35233;55.686;37.848;2023-02-13T12:49:23;6.25;;;3.17;;
47784;SDS011;35233;55.686;37.848;2023-02-13T12:59:58;5.32;;;2.88;;
47784;SDS011;35233;55.686;37.848;2023-02-13T13:21:43;6.75;;;2.85;;
47784;SDS011;35233;55.686;37.848;2023-02-13T13:24:32;5.90;;;3.00;;
47784;SDS011;35233;55.686;37.848;2023-02-13T13:32:50;5.75;;;3.40;;
47784;SDS011;35233;55.686;37.848;2023-02-13T13:35:20;5.72;;;3.13;;
47784;SDS011;35233;55.686;37.848;2023-02-13T13:38:09;5.53;;;3.08;;
47784;SDS011;35233;55.686;37.848;2023-02-13T13:40:52;5.63;;;3.25;;
47784;SDS011;35233;55.686;37.848;2023-02-13T13:51:06;6.95;;;3.25;;
47784;SDS011;35233;55.686;37.848;2023-02-13T13:53:49;5.18;;;3.13;;
47784;SDS011;35233;55.686;37.848;2023-02-13T14:07:44;4.40;;;3.17;;
47784;SDS011;35233;55.686;37.848;2023-02-13T14:15:48;6.05;;;3.28;;
47784;SDS011;35233;55.686;37.848;2023-02-13T14:20:41;7.25;;;3.20;;
47784;SDS011;35233;55.686;37.848;2023-02-13T14:28:43;4.70;;;3.25;;
47784;SDS011;35233;55.686;37.848;2023-02-13T14:36:44;4.50;;;2.65;;
47784;SDS011;35233;55.686;37.848;2023-02-13T14:39:18;5.38;;;3.17;;
47784;SDS011;35233;55.686;37.848;2023-02-13T14:47:35;4.65;;;2.97;;
47784;SDS011;35233;55.686;37.848;2023-02-13T14:50:04;7.05;;;2.90;;
47784;SDS011;35233;55.686;37.848;2023-02-13T14:52:33;7.35;;;3.00;;
47784;SDS011;35233;55.686;37.848;2023-02-13T14:55:06;4.50;;;3.00;;
47784;SDS011;35233;55.686;37.848;2023-02-13T14:57:40;5.38;;;2.78;;
47784;SDS011;35233;55.686;37.848;2023-02-13T15:02:43;6.93;;;3.25;;
47784;SDS011;35233;55.686;37.848;2023-02-13T15:05:15;4.55;;;2.97;;
47784;SDS011;35233;55.686;37.848;2023-02-13T15:07:51;6.45;;;3.58;;
47784;SDS011;35233;55.686;37.848;2023-02-13T15:13:11;5.43;;;3.20;;
47784;SDS011;35233;55.686;37.848;2023-02-13T15:15:39;4.93;;;2.80;;
47784;SDS011;35233;55.686;37.848;2023-02-13T15:18:10;5.07;;;3.15;;
47784;SDS011;35233;55.686;37.848;2023-02-13T15:20:46;4.80;;;2.80;;
47784;SDS011;35233;55.686;37.848;2023-02-13T15:23:19;5.07;;;2.85;;
47784;SDS011;35233;55.686;37.848;2023-02-13T15:26:00;4.30;;;2.90;;
47784;SDS011;35233;55.686;37.848;2023-02-13T15:28:28;4.60;;;2.70;;
47784;SDS011;35233;55.686;37.848;2023-02-13T15:31:02;5.43;;;3.13;;
47784;SDS011;35233;55.686;37.848;2023-02-13T15:33:48;4.35;;;3.17;;
47784;SDS011;35233;55.686;37.848;2023-02-13T15:36:19;5.28;;;2.70;;
47784;SDS011;35233;55.686;37.848;2023-02-13T15:38:46;3.15;;;2.63;;
47784;SDS011;35233;55.686;37.848;2023-02-13T15:41:19;4.03;;;2.80;;
47784;SDS011;35233;55.686;37.848;2023-02-13T15:43:49;4.43;;;2.80;;
47784;SDS011;35233;55.686;37.848;2023-02-13T15:46:24;4.13;;;2.65;;
47784;SDS011;35233;55.686;37.848;2023-02-13T15:48:57;4.57;;;2.90;;
47784;SDS011;35233;55.686;37.848;2023-02-13T15:51:26;5.53;;;2.70;;
47784;SDS011;35233;55.686;37.848;2023-02-13T15:53:57;7.00;;;2.90;;
47784;SDS011;35233;55.686;37.848;2023-02-13T15:56:25;7.72;;;3.10;;
47784;SDS011;35233;55.686;37.848;2023-02-13T15:58:54;4.43;;;2.88;;
47784;SDS011;35233;55.686;37.848;2023-02-13T16:01:44;5.45;;;2.97;;
47784;SDS011;35233;55.686;37.848;2023-02-13T16:10:28;6.37;;;3.57;;
47784;SDS011;35233;55.686;37.848;2023-02-13T16:13:00;6.82;;;4.45;;
47784;SDS011;35233;55.686;37.848;2023-02-13T16:15:31;7.97;;;5.18;;
47784;SDS011;35233;55.686;37.848;2023-02-13T16:18:03;8.50;;;5.13;;
47784;SDS011;35233;55.686;37.848;2023-02-13T16:20:41;9.48;;;6.50;;
47784;SDS011;35233;55.686;37.848;2023-02-13T16:23:15;14.50;;;6.65;;
47784;SDS011;35233;55.686;37.848;2023-02-13T16:25:44;10.48;;;6.47;;
47784;SDS011;35233;55.686;37.848;2023-02-13T16:30:56;12.30;;;7.10;;
47784;SDS011;35233;55.686;37.848;2023-02-13T16:33:27;10.48;;;6.55;;
47784;SDS011;35233;55.686;37.848;2023-02-13T16:35:59;12.20;;;6.85;;
47784;SDS011;35233;55.686;37.848;2023-02-13T16:38:38;10.90;;;6.40;;
47784;SDS011;35233;55.686;37.848;2023-02-13T16:43:49;9.55;;;6.38;;
47784;SDS011;35233;55.686;37.848;2023-02-13T16:56:51;9.82;;;6.13;;
47784;SDS011;35233;55.686;37.848;2023-02-13T17:02:01;10.02;;;5.70;;
47784;SDS011;35233;55.686;37.848;2023-02-13T17:04:28;8.68;;;5.40;;
47784;SDS011;35233;55.686;37.848;2023-02-13T17:06:53;8.25;;;5.45;;
47784;SDS011;35233;55.686;37.848;2023-02-13T17:09:20;9.68;;;5.50;;
47784;SDS011;35233;55.686;37.848;2023-02-13T17:11:49;7.85;;;5.28;;
47784;SDS011;35233;55.686;37.848;2023-02-13T17:14:17;8.13;;;5.40;;
47784;SDS011;35233;55.686;37.848;2023-02-13T17:16:45;10.40;;;5.57;;
47784;SDS011;35233;55.686;37.848;2023-02-13T17:19:11;8.45;;;5.22;;
47784;SDS011;35233;55.686;37.848;2023-02-13T17:21:37;10.00;;;5.75;;
47784;SDS011;35233;55.686;37.848;2023-02-13T17:24:04;10.32;;;4.97;;
47784;SDS011;35233;55.686;37.848;2023-02-13T17:26:31;9.45;;;5.00;;
47784;SDS011;35233;55.686;37.848;2023-02-13T17:28:56;10.18;;;5.75;;
47784;SDS011;35233;55.686;37.848;2023-02-13T17:31:22;9.48;;;5.28;;
47784;SDS011;35233;55.686;37.848;2023-02-13T17:33:47;8.57;;;5.30;;
47784;SDS011;35233;55.686;37.848;2023-02-13T17:36:13;8.18;;;5.25;;
47784;SDS011;35233;55.686;37.848;2023-02-13T17:38:39;8.57;;;5.50;;
47784;SDS011;35233;55.686;37.848;2023-02-13T17:41:05;9.18;;;5.15;;
47784;SDS011;35233;55.686;37.848;2023-02-13T17:43:36;9.35;;;5.20;;
47784;SDS011;35233;55.686;37.848;2023-02-13T17:46:01;10.98;;;5.55;;
47784;SDS011;35233;55.686;37.848;2023-02-13T17:48:28;8.88;;;5.30;;
47784;SDS011;35233;55.686;37.848;2023-02-13T17:50:56;8.50;;;5.50;;
47784;SDS011;35233;55.686;37.848;2023-02-13T17:53:25;8.38;;;5.20;;
47784;SDS011;35233;55.686;37.848;2023-02-13T17:55:56;7.83;;;5.03;;
47784;SDS011;35233;55.686;37.848;2023-02-13T17:58:21;10.73;;;5.53;;
47784;SDS011;35233;55.686;37.848;2023-02-13T18:00:47;10.85;;;5.70;;
47784;SDS011;35233;55.686;37.848;2023-02-13T18:03:13;10.40;;;5.22;;
47784;SDS011;35233;55.686;37.848;2023-02-13T18:05:38;9.85;;;5.65;;
47784;SDS011;35233;55.686;37.848;2023-02-13T18:08:05;8.70;;;5.50;;
47784;SDS011;35233;55.686;37.848;2023-02-13T18:10:31;9.70;;;5.80;;
47784;SDS011;35233;55.686;37.848;2023-02-13T18:12:59;10.30;;;5.95;;
47784;SDS011;35233;55.686;37.848;2023-02-13T18:15:37;8.80;;;6.28;;
47784;SDS011;35233;55.686;37.848;2023-02-13T18:18:05;10.25;;;6.68;;
47784;SDS011;35233;55.686;37.848;2023-02-13T18:20:31;9.60;;;6.05;;
47784;SDS011;35233;55.686;37.848;2023-02-13T18:22:57;10.52;;;6.55;;
47784;SDS011;35233;55.686;37.848;2023-02-13T18:25:22;10.50;;;5.78;;
47784;SDS011;35233;55.686;37.848;2023-02-13T18:27:48;11.07;;;6.15;;
47784;SDS011;35233;55.686;37.848;2023-02-13T18:30:15;10.20;;;5.85;;
47784;SDS011;35233;55.686;37.848;2023-02-13T18:32:42;9.45;;;6.45;;
47784;SDS011;35233;55.686;37.848;2023-02-13T18:35:08;9.93;;;6.35;;
47784;SDS011;35233;55.686;37.848;2023-02-13T18:37:34;10.15;;;6.03;;